createdAt,value
2019-05-01T00:04:12.776Z,50.63
2019-05-01T00:09:18.414Z,43.23
2019-05-01T00:14:24.240Z,49.40
2019-05-01T00:19:29.490Z,43.37
2019-05-01T00:24:35.054Z,53.53
2019-05-01T00:29:40.443Z,40.73
2019-05-01T00:35:04.526Z,38.30
2019-05-01T00:40:18.956Z,38.07
2019-05-01T00:45:26.401Z,37.03
2019-05-01T00:50:34.203Z,37.63
2019-05-01T00:55:45.917Z,28.27
2019-05-01T01:01:09.989Z,32.37
2019-05-01T01:06:15.561Z,35.73
2019-05-01T01:11:20.861Z,33.93
2019-05-01T01:16:26.213Z,35.80
2019-05-01T01:21:31.449Z,33.13
2019-05-01T01:26:37.705Z,34.70
2019-05-01T01:31:44.149Z,32.73
2019-05-01T01:36:49.515Z,38.47
2019-05-01T01:41:54.877Z,37.63
2019-05-01T01:47:01.333Z,45.00
2019-05-01T01:52:07.613Z,43.20
2019-05-01T01:57:13.685Z,43.07
2019-05-01T02:02:32.064Z,40.83
2019-05-01T02:07:40.066Z,37.77
2019-05-01T02:12:45.668Z,37.63
2019-05-01T02:17:50.988Z,38.43
2019-05-01T02:22:56.350Z,39.00
2019-05-01T02:28:31.808Z,46.83
2019-05-01T02:33:37.654Z,45.60
2019-05-01T02:38:45.213Z,45.93
2019-05-01T02:43:53.209Z,45.83
2019-05-01T02:49:05.739Z,46.57
2019-05-01T02:54:14.448Z,53.97
2019-05-01T02:59:20.355Z,47.13
2019-05-01T03:04:26.090Z,47.13
2019-05-01T03:09:33.881Z,54.37
2019-05-01T03:14:42.575Z,57.87
2019-05-01T03:20:03.270Z,55.93
2019-05-01T03:25:09.128Z,57.77
2019-05-01T03:30:15.274Z,48.73
2019-05-01T03:35:20.908Z,52.97
2019-05-01T03:40:26.470Z,52.63
2019-05-01T03:45:34.302Z,53.27
2019-05-01T03:50:40.067Z,57.97
2019-05-01T03:55:48.704Z,64.33
2019-05-01T04:01:06.324Z,64.80
2019-05-01T04:06:13.607Z,63.50
2019-05-01T04:11:19.568Z,65.40
2019-05-01T04:16:26.381Z,65.47
2019-05-01T04:21:37.116Z,64.30
2019-05-01T04:26:42.453Z,66.03
2019-05-01T04:32:07.090Z,66.63
2019-05-01T04:37:14.597Z,63.17
2019-05-01T04:42:21.691Z,72.17
2019-05-01T04:47:29.656Z,71.83
2019-05-01T04:52:35.360Z,69.40
2019-05-01T04:57:41.489Z,64.53
2019-05-01T05:03:04.900Z,70.87
2019-05-01T05:08:09.885Z,73.97
2019-05-01T05:13:27.538Z,66.83
2019-05-01T05:18:35.564Z,65.47
2019-05-01T05:23:42.841Z,66.63
2019-05-01T05:28:51.241Z,66.00
2019-05-01T05:34:02.426Z,73.00
2019-05-01T05:39:18.729Z,71.20
2019-05-01T05:44:24.427Z,66.77
2019-05-01T05:49:31.645Z,76.33
2019-05-01T05:55:05.384Z,77.13
2019-05-01T06:00:26.584Z,72.47
2019-05-01T06:05:48.778Z,75.00
2019-05-01T06:11:33.947Z,71.17
2019-05-01T06:17:05.532Z,73.97
2019-05-01T06:22:40.480Z,77.00
2019-05-01T06:28:01.076Z,73.27
2019-05-01T06:33:44.123Z,73.27
2019-05-01T06:38:43.400Z,77.90
2019-05-01T06:44:02.105Z,74.87
2019-05-01T06:49:29.464Z,81.07
2019-05-01T06:54:36.135Z,85.03
2019-05-01T06:59:42.798Z,73.80
2019-05-01T07:04:50.489Z,71.10
2019-05-01T07:09:59.160Z,72.90
2019-05-01T07:15:11.968Z,69.40
2019-05-01T07:20:25.542Z,63.87
2019-05-01T07:25:34.837Z,60.53
2019-05-01T07:31:14.141Z,60.77
2019-05-01T07:36:20.340Z,64.03
2019-05-01T07:41:25.950Z,63.50
2019-05-01T07:46:43.861Z,56.30
2019-05-01T07:51:53.640Z,58.37
2019-05-01T07:57:03.170Z,58.10
2019-05-01T08:02:14.263Z,63.90
2019-05-01T08:07:21.787Z,61.63
2019-05-01T08:12:27.496Z,54.87
2019-05-01T08:17:35.810Z,55.57
2019-05-01T08:22:41.729Z,59.87
2019-05-01T08:27:57.958Z,57.43
2019-05-01T08:33:14.617Z,57.37
2019-05-01T08:38:19.259Z,59.87
2019-05-01T08:43:25.045Z,63.43
2019-05-01T08:48:38.751Z,65.57
2019-05-01T08:53:46.133Z,60.40
2019-05-01T08:58:51.549Z,59.00
2019-05-01T09:03:57.842Z,61.00
2019-05-01T09:09:08.333Z,59.47
2019-05-01T09:14:13.080Z,58.10
2019-05-01T09:19:18.561Z,49.30
2019-05-01T09:24:28.094Z,44.83
2019-05-01T09:29:46.878Z,50.00
2019-05-01T09:34:52.515Z,45.87
2019-05-01T09:39:57.876Z,44.43
2019-05-01T09:45:03.544Z,46.33
2019-05-01T09:50:09.121Z,45.50
2019-05-01T09:55:23.025Z,42.13
2019-05-01T10:00:30.653Z,48.27
2019-05-01T10:05:37.995Z,44.23
2019-05-01T10:10:48.913Z,43.30
2019-05-01T10:15:56.864Z,46.53
2019-05-01T10:21:02.191Z,44.63
2019-05-01T10:26:10.394Z,47.53
2019-05-01T10:31:20.556Z,48.07
2019-05-01T10:36:49.890Z,48.40
2019-05-01T10:41:55.455Z,47.23
2019-05-01T10:47:02.099Z,45.97
2019-05-01T10:52:14.902Z,44.73
2019-05-01T10:57:20.815Z,45.53
2019-05-01T11:02:27.384Z,43.03
2019-05-01T11:07:39.101Z,40.20
2019-05-01T11:12:44.767Z,41.23
2019-05-01T11:17:50.365Z,38.87
2019-05-01T11:22:55.922Z,31.93
2019-05-01T11:28:02.454Z,29.33
2019-05-01T11:33:26.869Z,33.47
2019-05-01T11:38:50.778Z,32.87
2019-05-01T11:43:57.865Z,28.80
2019-05-01T11:49:04.367Z,27.57
2019-05-01T11:54:09.699Z,27.60
2019-05-01T11:59:15.735Z,25.53
2019-05-01T12:04:23.730Z,26.43
2019-05-01T12:09:29.239Z,25.10
2019-05-01T12:14:35.641Z,22.73
2019-05-01T12:19:41.256Z,24.33
2019-05-01T12:24:46.697Z,18.70
2019-05-01T12:29:52.442Z,17.57
2019-05-01T12:34:57.997Z,24.50
2019-05-01T12:40:04.284Z,25.07
2019-05-01T12:45:11.441Z,27.00
2019-05-01T12:50:17.613Z,29.43
2019-05-01T12:55:46.533Z,28.47
2019-05-01T13:00:53.568Z,25.93
2019-05-01T13:05:59.399Z,26.90
2019-05-01T13:11:05.739Z,28.30
2019-05-01T13:16:14.035Z,24.17
2019-05-01T13:21:20.044Z,28.57
2019-05-01T13:26:45.321Z,32.13
2019-05-01T13:32:03.404Z,32.83
2019-05-01T13:37:09.647Z,30.30
2019-05-01T13:42:16.611Z,29.87
2019-05-01T13:47:22.219Z,30.97
2019-05-01T13:52:27.986Z,33.03
2019-05-01T13:57:33.265Z,25.70
2019-05-01T14:02:38.732Z,29.03
2019-05-01T14:07:47.201Z,32.77
2019-05-01T14:12:52.727Z,31.57
2019-05-01T14:17:59.998Z,28.83
2019-05-01T14:23:10.397Z,32.17
2019-05-01T14:28:17.110Z,25.80
2019-05-01T14:33:22.575Z,21.70
2019-05-01T14:38:28.840Z,17.67
2019-05-01T14:43:35.993Z,25.27
2019-05-01T14:48:43.435Z,18.80
2019-05-01T14:53:49.470Z,22.80
2019-05-01T14:58:55.451Z,24.47
2019-05-01T15:04:05.589Z,22.73
2019-05-01T15:09:11.030Z,24.30
2019-05-01T15:14:43.414Z,27.90
2019-05-01T15:19:54.315Z,29.10
2019-05-01T15:25:01.885Z,27.60
2019-05-01T15:30:09.079Z,25.60
2019-05-01T15:35:16.486Z,26.23
2019-05-01T15:40:28.854Z,23.73
2019-05-01T15:45:34.624Z,26.07
2019-05-01T15:50:43.231Z,26.87
2019-05-01T15:55:49.574Z,26.23
2019-05-01T16:00:55.066Z,21.53
2019-05-01T16:06:00.485Z,26.67
2019-05-01T16:11:14.636Z,21.27
2019-05-01T16:16:20.069Z,23.40
2019-05-01T16:21:26.674Z,21.03
2019-05-01T16:26:32.506Z,20.97
2019-05-01T16:31:38.277Z,23.00
2019-05-01T16:36:45.324Z,19.20
2019-05-01T16:41:50.974Z,19.47
2019-05-01T16:46:56.772Z,21.90
2019-05-01T16:52:02.132Z,22.80
2019-05-01T16:57:15.085Z,22.93
2019-05-01T17:02:43.708Z,19.93
2019-05-01T17:07:59.066Z,18.63
2019-05-01T17:13:26.021Z,20.27
2019-05-01T17:18:31.622Z,21.03
2019-05-01T17:23:38.935Z,23.37
2019-05-01T17:28:44.545Z,20.40
2019-05-01T17:33:55.385Z,21.13
2019-05-01T17:38:58.399Z,17.53
2019-05-01T17:44:07.461Z,17.00
2019-05-01T17:49:15.097Z,23.47
2019-05-01T17:54:21.886Z,15.00
2019-05-01T17:59:27.578Z,19.10
2019-05-01T18:04:41.669Z,17.37
2019-05-01T18:09:51.370Z,17.50
2019-05-01T18:14:56.258Z,20.90
2019-05-01T18:20:01.889Z,17.13
2019-05-01T18:25:19.129Z,15.33
2019-05-01T18:30:29.876Z,17.50
2019-05-01T18:35:35.198Z,14.03
2019-05-01T18:40:48.327Z,16.30
2019-05-01T18:45:55.632Z,18.40
2019-05-01T18:51:01.039Z,15.60
2019-05-01T18:56:07.088Z,17.80
2019-05-01T19:01:12.711Z,16.20
2019-05-01T19:06:18.059Z,17.57
2019-05-01T19:11:23.728Z,16.10
2019-05-01T19:16:29.311Z,17.17
2019-05-01T19:21:35.251Z,14.13
2019-05-01T19:26:42.644Z,14.60
2019-05-01T19:31:49.110Z,14.73
2019-05-01T19:36:54.434Z,16.43
2019-05-01T19:42:00.393Z,17.93
2019-05-01T19:47:07.948Z,15.37
2019-05-01T19:52:13.839Z,21.27
2019-05-01T19:57:19.388Z,16.33
2019-05-01T20:02:25.283Z,15.13
2019-05-01T20:07:31.023Z,15.33
2019-05-01T20:12:36.323Z,17.53
2019-05-01T20:17:41.880Z,19.27
2019-05-01T20:22:48.262Z,15.80
2019-05-01T20:27:54.713Z,17.93
2019-05-01T20:33:02.120Z,18.83
2019-05-01T20:38:09.070Z,19.13
2019-05-01T20:43:14.471Z,19.80
2019-05-01T20:48:23.760Z,18.07
2019-05-01T20:53:27.198Z,19.97
2019-05-01T20:58:34.206Z,22.57
2019-05-01T21:03:44.136Z,20.77
2019-05-01T21:08:55.023Z,20.23
2019-05-01T21:14:16.771Z,21.40
2019-05-01T21:19:08.843Z,24.17
2019-05-01T21:24:14.225Z,22.90
2019-05-01T21:29:21.560Z,24.53
2019-05-01T21:34:26.960Z,25.27
2019-05-01T21:39:33.471Z,22.00
2019-05-01T21:44:39.128Z,25.50
2019-05-01T21:49:45.113Z,22.73
2019-05-01T21:54:55.301Z,22.13
2019-05-01T21:59:57.993Z,24.97
2019-05-01T22:05:04.875Z,23.33
2019-05-01T22:10:11.559Z,26.67
2019-05-01T22:15:25.395Z,24.03
2019-05-01T22:20:38.652Z,28.97
2019-05-01T22:25:49.979Z,25.27
2019-05-01T22:31:21.790Z,28.97
2019-05-01T22:36:27.632Z,29.47
2019-05-01T22:41:32.898Z,24.90
2019-05-01T22:46:38.934Z,29.77
2019-05-01T22:51:46.601Z,23.60
2019-05-01T22:56:51.934Z,24.43
2019-05-01T23:02:03.067Z,28.27
2019-05-01T23:07:11.806Z,30.03
2019-05-01T23:12:18.974Z,26.90
2019-05-01T23:17:34.968Z,28.57
2019-05-01T23:22:40.795Z,25.37
2019-05-01T23:27:46.078Z,28.97
2019-05-01T23:32:53.234Z,28.47
2019-05-01T23:38:01.305Z,29.17
2019-05-01T23:43:06.606Z,29.63
2019-05-01T23:48:11.891Z,33.50
2019-05-01T23:53:17.331Z,35.63
2019-05-01T23:58:22.799Z,35.47
